Time,TemperatureF,DewpointF,PressureIn,WindDirection,WindDirectionDegrees,WindSpeedMPH,WindSpeedGustMPH,Humidity,HourlyPrecipIn,Conditions,Clouds,dailyrainin,SoftwareType,DateUTC
2013-09-05 06:48:00,60.2,59.3,30.16,NE,42,0.0,3.0,97,0.00,,---,0.00,VWS V13.01,2013-09-05 11:48:00,
2013-09-05 06:49:00,60.2,59.3,30.16,NE,41,0.0,3.0,97,0.00,,---,0.00,VWS V13.01,2013-09-05 11:49:00,
2013-09-05 06:50:00,60.3,59.5,30.16,NE,42,0.0,3.0,97,0.00,,---,0.00,VWS V13.01,2013-09-05 11:50:00,
2013-09-05 06:51:00,60.4,59.5,30.16,NE,42,0.0,3.0,97,0.00,,---,0.00,VWS V13.01,2013-09-05 11:51:00,
2013-09-05 06:52:00,60.5,59.7,30.16,NE,42,0.0,3.0,97,0.00,,---,0.00,VWS V13.01,2013-09-05 11:52:00,
2013-09-05 06:53:00,60.6,59.8,30.16,NE,42,0.0,3.0,97,0.00,,---,0.00,VWS V13.01,2013-09-05 11:53:00,
2013-09-05 06:54:00,60.7,59.8,30.16,NE,42,0.0,3.0,97,0.00,,---,0.00,VWS V13.01,2013-09-05 11:54:00,
2013-09-05 06:55:00,60.8,60.0,30.16,NE,42,0.0,3.0,97,0.00,,---,0.00,VWS V13.01,2013-09-05 11:55:00,
2013-09-05 06:56:00,60.9,60.0,30.16,NE,41,0.0,3.0,97,0.00,,---,0.00,VWS V13.01,2013-09-05 11:56:00,
2013-09-05 06:57:00,61.1,60.2,30.16,NE,41,0.0,3.0,97,0.00,,---,0.00,VWS V13.01,2013-09-05 11:57:00,
2013-09-05 06:58:00,61.1,60.2,30.16,NE,42,0.0,3.0,97,0.00,,---,0.00,VWS V13.01,2013-09-05 11:58:00,
2013-09-05 06:59:00,61.2,60.3,30.16,NE,42,0.0,3.0,97,0.00,,---,0.00,VWS V13.01,2013-09-05 11:59:00,
2013-09-05 07:00:00,61.3,60.4,30.16,NE,41,0.0,3.0,97,0.00,,---,0.00,VWS V13.01,2013-09-05 12:00:00,
2013-09-05 07:01:00,61.4,60.5,30.16,NE,42,0.0,0.0,97,0.00,,---,0.00,VWS V13.01,2013-09-05 12:01:00,
2013-09-05 07:02:00,61.6,60.7,30.16,NE,41,0.0,0.0,97,0.00,,---,0.00,VWS V13.01,2013-09-05 12:02:00,
2013-09-05 07:03:00,61.7,60.8,30.16,NE,42,0.0,0.0,97,0.00,,---,0.00,VWS V13.01,2013-09-05 12:03:00,
2013-09-05 07:04:00,61.8,60.9,30.16,NE,42,0.0,0.0,97,0.00,,---,0.00,VWS V13.01,2013-09-05 12:04:00,
2013-09-05 07:05:00,61.9,61.0,30.16,NE,42,0.0,0.0,97,0.00,,---,0.00,VWS V13.01,2013-09-05 12:05:00,
2013-09-05 07:06:00,62.1,61.2,30.16,NE,42,0.0,0.0,97,0.00,,---,0.00,VWS V13.01,2013-09-05 12:06:00,
2013-09-05 07:07:00,62.2,61.3,30.16,NE,41,0.0,0.0,97,0.00,,---,0.00,VWS V13.01,2013-09-05 12:07:00,
2013-09-05 07:08:00,62.3,61.4,30.16,NE,41,0.0,0.0,97,0.00,,---,0.00,VWS V13.01,2013-09-05 12:08:00,
2013-09-05 07:09:00,62.4,61.5,30.17,NE,41,0.0,0.0,97,0.00,,---,0.00,VWS V13.01,2013-09-05 12:09:00,
2013-09-05 07:10:00,62.6,61.7,30.16,NE,42,0.0,0.0,97,0.00,,---,0.00,VWS V13.01,2013-09-05 12:10:00,
2013-09-05 07:11:00,62.7,61.8,30.16,NE,42,0.0,0.0,97,0.00,,---,0.00,VWS V13.01,2013-09-05 12:11:00,
2013-09-05 07:12:00,62.9,62.0,30.17,NE,42,0.0,0.0,97,0.00,,---,0.00,VWS V13.01,2013-09-05 12:12:00,
2013-09-05 07:13:00,63.1,62.2,30.16,NE,41,0.0,0.0,97,0.00,,---,0.00,VWS V13.01,2013-09-05 12:13:00,
2013-09-05 07:14:00,63.2,62.3,30.17,NE,42,0.0,0.0,97,0.00,,---,0.00,VWS V13.01,2013-09-05 12:14:00,
2013-09-05 07:15:00,63.4,62.5,30.17,NE,41,0.0,0.0,97,0.00,,---,0.00,VWS V13.01,2013-09-05 12:15:00,
2013-09-05 07:16:00,63.5,62.6,30.17,NE,42,0.0,0.0,97,0.00,,---,0.00,VWS V13.01,2013-09-05 12:16:00,
2013-09-05 07:17:00,63.7,62.8,30.17,NE,42,0.0,0.0,97,0.00,,---,0.00,VWS V13.01,2013-09-05 12:17:00,
2013-09-05 07:18:00,63.8,62.9,30.17,NE,42,0.0,0.0,97,0.00,,---,0.00,VWS V13.01,2013-09-05 12:18:00,
2013-09-05 07:19:00,64.0,63.1,30.17,NE,42,0.0,0.0,97,0.00,,---,0.00,VWS V13.01,2013-09-05 12:19:00,
2013-09-05 07:20:00,64.1,63.2,30.17,NE,41,0.0,0.0,97,0.00,,---,0.00,VWS V13.01,2013-09-05 12:20:00,
2013-09-05 07:21:00,64.2,63.3,30.17,NE,42,0.0,0.0,97,0.00,,---,0.00,VWS V13.01,2013-09-05 12:21:00,
2013-09-05 07:22:00,64.4,63.5,30.17,NE,42,0.0,0.0,97,0.00,,---,0.00,VWS V13.01,2013-09-05 12:22:00,
2013-09-05 07:23:00,64.5,63.6,30.16,NE,42,0.0,0.0,97,0.00,,---,0.00,VWS V13.01,2013-09-05 12:23:00,
2013-09-05 07:24:00,64.6,63.7,30.17,NE,42,0.0,0.0,97,0.00,,---,0.00,VWS V13.01,2013-09-05 12:24:00,
2013-09-05 07:25:00,64.8,64.2,30.17,NE,41,0.0,0.0,98,0.00,,---,0.00,VWS V13.01,2013-09-05 12:25:00,
2013-09-05 07:26:00,64.9,64.0,30.16,NE,41,0.0,0.0,97,0.00,,---,0.00,VWS V13.01,2013-09-05 12:26:00,
2013-09-05 07:27:00,65.1,64.2,30.16,NE,41,0.0,0.0,97,0.00,,---,0.00,VWS V13.01,2013-09-05 12:27:00,
2013-09-05 07:28:00,65.3,64.7,30.17,NE,42,0.0,0.0,98,0.00,,---,0.00,VWS V13.01,2013-09-05 12:28:00,
2013-09-05 07:29:00,65.4,64.8,30.16,NE,42,0.0,0.0,98,0.00,,---,0.00,VWS V13.01,2013-09-05 12:29:00,
2013-09-05 07:30:00,65.5,64.9,30.17,NE,41,0.0,0.0,98,0.00,,---,0.00,VWS V13.01,2013-09-05 12:30:00,
2013-09-05 07:31:00,65.6,64.7,30.17,NE,42,0.0,0.0,97,0.00,,---,0.00,VWS V13.01,2013-09-05 12:31:00,
2013-09-05 07:32:00,65.7,64.8,30.17,NE,42,0.0,0.0,97,0.00,,---,0.00,VWS V13.01,2013-09-05 12:32:00,
2013-09-05 07:33:00,65.8,64.9,30.17,NE,41,0.0,0.0,97,0.00,,---,0.00,VWS V13.01,2013-09-05 12:33:00,
2013-09-05 07:34:00,65.9,65.3,30.17,NE,42,0.0,0.0,98,0.00,,---,0.00,VWS V13.01,2013-09-05 12:34:00,
2013-09-05 07:35:00,66.1,65.5,30.17,NE,41,0.0,0.0,98,0.00,,---,0.00,VWS V13.01,2013-09-05 12:35:00,
2013-09-05 07:36:00,66.3,65.7,30.17,NE,41,0.0,1.0,98,0.00,,---,0.00,VWS V13.01,2013-09-05 12:36:00,
2013-09-05 07:37:00,66.5,65.6,30.17,NE,41,0.0,1.0,97,0.00,,---,0.00,VWS V13.01,2013-09-05 12:37:00,
2013-09-05 07:38:00,66.6,66.0,30.17,NE,42,0.0,1.0,98,0.00,,---,0.00,VWS V13.01,2013-09-05 12:38:00,
2013-09-05 07:39:00,66.7,66.1,30.17,NE,46,2.0,4.0,98,0.00,,---,0.00,VWS V13.01,2013-09-05 12:39:00,
2013-09-05 07:40:00,66.8,66.2,30.17,NE,46,0.0,4.0,98,0.00,,---,0.00,VWS V13.01,2013-09-05 12:40:00,
2013-09-05 07:41:00,66.9,66.0,30.17,NE,46,0.0,4.0,97,0.00,,---,0.00,VWS V13.01,2013-09-05 12:41:00,
2013-09-05 07:42:00,67.0,66.1,30.17,NE,45,1.0,4.0,97,0.00,,---,0.00,VWS V13.01,2013-09-05 12:42:00,
2013-09-05 07:43:00,67.0,66.1,30.17,NE,45,1.0,4.0,97,0.00,,---,0.00,VWS V13.01,2013-09-05 12:43:00,
2013-09-05 07:44:00,67.1,66.5,30.17,NE,46,0.0,4.0,98,0.00,,---,0.00,VWS V13.01,2013-09-05 12:44:00,
2013-09-05 07:45:00,67.2,66.6,30.17,NE,46,0.0,4.0,98,0.00,,---,0.00,VWS V13.01,2013-09-05 12:45:00,
2013-09-05 07:46:00,67.3,66.4,30.17,NE,46,0.0,4.0,97,0.00,,---,0.00,VWS V13.01,2013-09-05 12:46:00,
2013-09-05 07:47:00,67.4,66.5,30.17,NE,45,0.0,4.0,97,0.00,,---,0.00,VWS V13.01,2013-09-05 12:47:00,
2013-09-05 07:48:00,67.5,66.6,30.17,NE,45,3.0,4.0,97,0.00,,---,0.00,VWS V13.01,2013-09-05 12:48:00,
2013-09-05 07:49:00,67.6,66.7,30.17,NE,45,2.0,4.0,97,0.00,,---,0.00,VWS V13.01,2013-09-05 12:49:00,
2013-09-05 07:50:00,67.6,66.7,30.17,NE,46,0.0,4.0,97,0.00,,---,0.00,VWS V13.01,2013-09-05 12:50:00,
2013-09-05 07:51:00,67.7,66.8,30.17,NE,46,0.0,4.0,97,0.00,,---,0.00,VWS V13.01,2013-09-05 12:51:00,
2013-09-05 07:52:00,67.8,66.9,30.17,NE,46,0.0,4.0,97,0.00,,---,0.00,VWS V13.01,2013-09-05 12:52:00,
2013-09-05 07:53:00,67.9,67.0,30.17,NE,46,0.0,4.0,97,0.00,,---,0.00,VWS V13.01,2013-09-05 12:53:00,
2013-09-05 07:54:00,68.1,67.2,30.17,NE,45,0.0,4.0,97,0.00,,---,0.00,VWS V13.01,2013-09-05 12:54:00,
2013-09-05 07:55:00,68.2,67.3,30.17,NE,46,0.0,4.0,97,0.00,,---,0.00,VWS V13.01,2013-09-05 12:55:00,
2013-09-05 07:56:00,68.3,67.4,30.17,NE,45,0.0,4.0,97,0.00,,---,0.00,VWS V13.01,2013-09-05 12:56:00,
2013-09-05 07:57:00,68.5,67.6,30.17,NE,46,0.0,4.0,97,0.00,,---,0.00,VWS V13.01,2013-09-05 12:57:00,
2013-09-05 07:58:00,68.6,67.7,30.17,NE,46,3.0,4.0,97,0.00,,---,0.00,VWS V13.01,2013-09-05 12:58:00,
2013-09-05 07:59:00,68.5,67.3,30.17,NE,46,4.0,4.0,96,0.00,,---,0.00,VWS V13.01,2013-09-05 12:59:00,
2013-09-05 08:00:00,68.5,67.3,30.17,NE,45,0.0,4.0,96,0.00,,---,0.00,VWS V13.01,2013-09-05 13:00:00,
2013-09-05 08:01:00,68.5,67.0,30.17,NE,45,1.0,3.0,95,0.00,,---,0.00,VWS V13.01,2013-09-05 13:01:00,
2013-09-05 08:02:00,68.6,67.1,30.17,NE,45,2.0,3.0,95,0.00,,---,0.00,VWS V13.01,2013-09-05 13:02:00,
2013-09-05 08:03:00,68.6,66.8,30.17,NE,46,2.0,4.0,94,0.00,,---,0.00,VWS V13.01,2013-09-05 13:03:00,
2013-09-05 08:04:00,68.7,66.9,30.17,NE,46,2.0,4.0,94,0.00,,---,0.00,VWS V13.01,2013-09-05 13:04:00,
2013-09-05 08:05:00,68.7,66.9,30.17,NE,46,0.0,4.0,94,0.00,,---,0.00,VWS V13.01,2013-09-05 13:05:00,
2013-09-05 08:06:00,68.9,67.1,30.17,NE,46,0.0,4.0,94,0.00,,---,0.00,VWS V13.01,2013-09-05 13:06:00,
2013-09-05 08:07:00,69.0,67.2,30.17,NE,45,2.0,4.0,94,0.00,,---,0.00,VWS V13.01,2013-09-05 13:07:00,
2013-09-05 08:08:00,69.1,67.3,30.17,NE,46,0.0,4.0,94,0.00,,---,0.00,VWS V13.01,2013-09-05 13:08:00,
2013-09-05 08:09:00,69.2,67.4,30.16,NE,46,0.0,4.0,94,0.00,,---,0.00,VWS V13.01,2013-09-05 13:09:00,
2013-09-05 08:10:00,69.3,67.2,30.17,NE,46,3.0,4.0,93,0.00,,---,0.00,VWS V13.01,2013-09-05 13:10:00,
2013-09-05 08:11:00,69.3,66.9,30.16,NE,46,4.0,5.0,92,0.00,,---,0.00,VWS V13.01,2013-09-05 13:11:00,
2013-09-05 08:12:00,69.4,66.7,30.16,NE,45,2.0,5.0,91,0.00,,---,0.00,VWS V13.01,2013-09-05 13:12:00,
2013-09-05 08:13:00,69.4,66.7,30.16,NE,46,4.0,5.0,91,0.00,,---,0.00,VWS V13.01,2013-09-05 13:13:00,
2013-09-05 08:14:00,69.5,66.4,30.17,NE,46,2.0,5.0,90,0.00,,---,0.00,VWS V13.01,2013-09-05 13:14:00,
2013-09-05 08:15:00,69.6,66.5,30.17,NE,46,0.0,5.0,90,0.00,,---,0.00,VWS V13.01,2013-09-05 13:15:00,
2013-09-05 08:16:00,69.7,67.0,30.17,NE,45,0.0,5.0,91,0.00,,---,0.00,VWS V13.01,2013-09-05 13:16:00,
2013-09-05 08:17:00,69.8,67.1,30.17,NE,45,0.0,5.0,91,0.00,,---,0.00,VWS V13.01,2013-09-05 13:17:00,
2013-09-05 08:18:00,69.9,67.2,30.17,NE,45,0.0,5.0,91,0.00,,---,0.00,VWS V13.01,2013-09-05 13:18:00,
2013-09-05 08:19:00,70.0,66.9,30.17,NE,45,0.0,5.0,90,0.00,,---,0.00,VWS V13.01,2013-09-05 13:19:00,
2013-09-05 08:20:00,70.1,67.0,30.17,NE,46,0.0,5.0,90,0.00,,---,0.00,VWS V13.01,2013-09-05 13:20:00,
2013-09-05 08:21:00,70.1,67.0,30.17,NE,45,0.0,5.0,90,0.00,,---,0.00,VWS V13.01,2013-09-05 13:21:00,
2013-09-05 08:22:00,70.3,67.2,30.17,NE,46,3.0,5.0,90,0.00,,---,0.00,VWS V13.01,2013-09-05 13:22:00,
2013-09-05 08:23:00,70.4,67.0,30.17,NE,45,0.0,5.0,89,0.00,,---,0.00,VWS V13.01,2013-09-05 13:23:00,
2013-09-05 08:24:00,70.5,67.1,30.17,NE,45,0.0,5.0,89,0.00,,---,0.00,VWS V13.01,2013-09-05 13:24:00,
2013-09-05 08:25:00,70.6,66.9,30.17,NE,45,0.0,5.0,88,0.00,,---,0.00,VWS V13.01,2013-09-05 13:25:00,
2013-09-05 08:26:00,70.6,66.6,30.17,NE,46,1.0,5.0,87,0.00,,---,0.00,VWS V13.01,2013-09-05 13:26:00,
2013-09-05 08:27:00,70.7,66.3,30.17,NE,46,0.0,5.0,86,0.00,,---,0.00,VWS V13.01,2013-09-05 13:27:00,
2013-09-05 08:28:00,70.8,66.7,30.17,NE,46,2.0,5.0,87,0.00,,---,0.00,VWS V13.01,2013-09-05 13:28:00,
2013-09-05 08:29:00,71.0,67.3,30.17,NE,45,0.0,5.0,88,0.00,,---,0.00,VWS V13.01,2013-09-05 13:29:00,
2013-09-05 08:30:00,71.2,67.1,30.17,NE,45,0.0,5.0,87,0.00,,---,0.00,VWS V13.01,2013-09-05 13:30:00,
2013-09-05 08:31:00,71.3,66.9,30.17,NE,46,0.0,2.0,86,0.00,,---,0.00,VWS V13.01,2013-09-05 13:31:00,
2013-09-05 08:32:00,71.3,66.6,30.17,NE,46,2.0,3.0,85,0.00,,---,0.00,VWS V13.01,2013-09-05 13:32:00,
2013-09-05 08:33:00,71.3,66.9,30.17,NE,46,2.0,4.0,86,0.00,,---,0.00,VWS V13.01,2013-09-05 13:33:00,
2013-09-05 08:34:00,71.4,66.7,30.17,NE,45,2.0,4.0,85,0.00,,---,0.00,VWS V13.01,2013-09-05 13:34:00,
2013-09-05 08:35:00,71.5,66.8,30.17,NE,46,5.0,5.0,85,0.00,,---,0.00,VWS V13.01,2013-09-05 13:35:00,
2013-09-05 08:36:00,71.5,66.8,30.17,NE,45,2.0,5.0,85,0.00,,---,0.00,VWS V13.01,2013-09-05 13:36:00,
2013-09-05 08:37:00,71.6,66.9,30.17,NE,46,3.0,5.0,85,0.00,,---,0.00,VWS V13.01,2013-09-05 13:37:00,
2013-09-05 08:38:00,71.7,66.6,30.17,NE,45,0.0,5.0,84,0.00,,---,0.00,VWS V13.01,2013-09-05 13:38:00,
2013-09-05 08:39:00,71.7,66.9,30.17,NE,46,0.0,5.0,85,0.00,,---,0.00,VWS V13.01,2013-09-05 13:39:00,
2013-09-05 08:40:00,71.8,66.7,30.17,NE,46,0.0,5.0,84,0.00,,---,0.00,VWS V13.01,2013-09-05 13:40:00,
2013-09-05 08:41:00,71.9,67.2,30.17,NE,46,2.0,5.0,85,0.00,,---,0.00,VWS V13.01,2013-09-05 13:41:00,
2013-09-05 08:42:00,72.0,66.9,30.17,NE,46,0.0,5.0,84,0.00,,---,0.00,VWS V13.01,2013-09-05 13:42:00,
2013-09-05 08:43:00,72.1,67.3,30.17,NE,45,0.0,5.0,85,0.00,,---,0.00,VWS V13.01,2013-09-05 13:43:00,
2013-09-05 08:44:00,72.2,67.4,30.17,NE,45,2.0,5.0,85,0.00,,---,0.00,VWS V13.01,2013-09-05 13:44:00,
2013-09-05 08:45:00,72.3,67.2,30.17,NE,46,4.0,5.0,84,0.00,,---,0.00,VWS V13.01,2013-09-05 13:45:00,
2013-09-05 08:46:00,72.4,66.9,30.17,NE,46,0.0,5.0,83,0.00,,---,0.00,VWS V13.01,2013-09-05 13:46:00,
2013-09-05 08:47:00,72.5,67.1,30.17,NE,46,0.0,5.0,83,0.00,,---,0.00,VWS V13.01,2013-09-05 13:47:00,
2013-09-05 08:48:00,72.6,67.2,30.17,NE,45,2.0,5.0,83,0.00,,---,0.00,VWS V13.01,2013-09-05 13:48:00,
2013-09-05 08:49:00,72.6,67.2,30.17,NE,46,3.0,5.0,83,0.00,,---,0.00,VWS V13.01,2013-09-05 13:49:00,
2013-09-05 08:50:00,72.7,66.9,30.17,NE,46,0.0,5.0,82,0.00,,---,0.00,VWS V13.01,2013-09-05 13:50:00,
2013-09-05 08:51:00,72.8,67.3,30.17,NE,45,4.0,5.0,83,0.00,,---,0.00,VWS V13.01,2013-09-05 13:51:00,
2013-09-05 08:52:00,72.8,66.6,30.17,NE,46,3.0,5.0,81,0.00,,---,0.00,VWS V13.01,2013-09-05 13:52:00,
2013-09-05 08:53:00,72.9,66.7,30.17,NE,45,3.0,5.0,81,0.00,,---,0.00,VWS V13.01,2013-09-05 13:53:00,
2013-09-05 08:54:00,72.9,66.0,30.17,NE,46,3.0,6.0,79,0.00,,---,0.00,VWS V13.01,2013-09-05 13:54:00,
2013-09-05 08:55:00,72.8,65.9,30.17,NE,46,4.0,6.0,79,0.00,,---,0.00,VWS V13.01,2013-09-05 13:55:00,
2013-09-05 08:56:00,72.8,65.9,30.17,NE,46,4.0,6.0,79,0.00,,---,0.00,VWS V13.01,2013-09-05 13:56:00,
2013-09-05 08:57:00,72.8,65.9,30.17,NE,45,5.0,6.0,79,0.00,,---,0.00,VWS V13.01,2013-09-05 13:57:00,
2013-09-05 08:58:00,72.8,65.9,30.17,NE,45,3.0,6.0,79,0.00,,---,0.00,VWS V13.01,2013-09-05 13:58:00,
2013-09-05 08:59:00,72.8,66.3,30.16,NE,46,0.0,6.0,80,0.00,,---,0.00,VWS V13.01,2013-09-05 13:59:00,
2013-09-05 09:00:00,72.9,66.4,30.16,NE,45,1.0,6.0,80,0.00,,---,0.00,VWS V13.01,2013-09-05 14:00:00,
2013-09-05 09:01:00,73.0,67.2,30.16,NE,46,0.0,1.0,82,0.00,,---,0.00,VWS V13.01,2013-09-05 14:01:00,
2013-09-05 09:02:00,73.0,67.2,30.16,NE,46,0.0,2.0,82,0.00,,---,0.00,VWS V13.01,2013-09-05 14:02:00,
2013-09-05 09:03:00,73.1,66.9,30.16,NE,46,3.0,3.0,81,0.00,,---,0.00,VWS V13.01,2013-09-05 14:03:00,
2013-09-05 09:04:00,73.2,66.7,30.16,NE,45,2.0,3.0,80,0.00,,---,0.00,VWS V13.01,2013-09-05 14:04:00,
2013-09-05 09:05:00,73.3,66.8,30.16,NE,45,3.0,3.0,80,0.00,,---,0.00,VWS V13.01,2013-09-05 14:05:00,
2013-09-05 09:06:00,73.5,67.3,30.16,NE,45,2.0,3.0,81,0.00,,---,0.00,VWS V13.01,2013-09-05 14:06:00,
2013-09-05 09:07:00,73.5,66.6,30.16,NE,46,1.0,4.0,79,0.00,,---,0.00,VWS V13.01,2013-09-05 14:07:00,
2013-09-05 09:08:00,73.6,67.1,30.16,NE,46,2.0,4.0,80,0.00,,---,0.00,VWS V13.01,2013-09-05 14:08:00,
2013-09-05 09:09:00,73.7,67.5,30.16,NE,46,0.0,5.0,81,0.00,,---,0.00,VWS V13.01,2013-09-05 14:09:00,
2013-09-05 09:10:00,73.8,67.6,30.16,NE,46,3.0,5.0,81,0.00,,---,0.00,VWS V13.01,2013-09-05 14:10:00,
2013-09-05 09:11:00,73.9,67.0,30.16,NE,46,3.0,5.0,79,0.00,,---,0.00,VWS V13.01,2013-09-05 14:11:00,
2013-09-05 09:12:00,73.9,67.0,30.16,NE,45,2.0,5.0,79,0.00,,---,0.00,VWS V13.01,2013-09-05 14:12:00,
2013-09-05 09:13:00,74.0,67.4,30.16,NE,46,0.0,5.0,80,0.00,,---,0.00,VWS V13.01,2013-09-05 14:13:00,
2013-09-05 09:14:00,74.0,67.8,30.16,NE,46,0.0,5.0,81,0.00,,---,0.00,VWS V13.01,2013-09-05 14:14:00,
2013-09-05 09:15:00,74.1,67.2,30.16,NE,46,0.0,5.0,79,0.00,,---,0.00,VWS V13.01,2013-09-05 14:15:00,
2013-09-05 09:16:00,74.2,67.3,30.17,NE,46,0.0,5.0,79,0.00,,---,0.00,VWS V13.01,2013-09-05 14:16:00,
2013-09-05 09:17:00,74.2,67.3,30.16,NE,46,0.0,5.0,79,0.00,,---,0.00,VWS V13.01,2013-09-05 14:17:00,
2013-09-05 09:18:00,74.3,67.0,30.17,NE,45,0.0,5.0,78,0.00,,---,0.00,VWS V13.01,2013-09-05 14:18:00,
2013-09-05 09:19:00,74.4,67.8,30.17,NE,45,2.0,5.0,80,0.00,,---,0.00,VWS V13.01,2013-09-05 14:19:00,
2013-09-05 14:00:00,81.2,66.9,30.14,ENE,64,0.0,5.0,62,0.00,,---,0.00,VWS V13.01,2013-09-05 19:00:00,
2013-09-05 14:01:00,81.2,67.9,30.14,ENE,64,0.0,0.0,64,0.00,,---,0.00,VWS V13.01,2013-09-05 19:01:00,
2013-09-05 14:02:00,81.3,68.4,30.14,ENE,64,0.0,1.0,65,0.00,,---,0.00,VWS V13.01,2013-09-05 19:02:00,
2013-09-05 14:03:00,81.4,69.0,30.14,ENE,64,3.0,6.0,66,0.00,,---,0.00,VWS V13.01,2013-09-05 19:03:00,
2013-09-05 14:04:00,81.3,67.1,30.13,ENE,64,0.0,6.0,62,0.00,,---,0.00,VWS V13.01,2013-09-05 19:04:00,
2013-09-05 14:05:00,81.3,67.5,30.14,ENE,64,0.0,6.0,63,0.00,,---,0.00,VWS V13.01,2013-09-05 19:05:00,
2013-09-05 14:06:00,81.3,67.5,30.14,ENE,64,0.0,6.0,63,0.00,,---,0.00,VWS V13.01,2013-09-05 19:06:00,
2013-09-05 14:07:00,81.3,68.0,30.14,ENE,64,0.0,6.0,64,0.00,,---,0.00,VWS V13.01,2013-09-05 19:07:00,
2013-09-05 14:08:00,81.4,68.1,30.14,ENE,64,0.0,6.0,64,0.00,,---,0.00,VWS V13.01,2013-09-05 19:08:00,
2013-09-05 14:09:00,81.4,67.6,30.13,ENE,64,0.0,6.0,63,0.00,,---,0.00,VWS V13.01,2013-09-05 19:09:00,
2013-09-05 14:10:00,81.4,67.1,30.14,ENE,64,3.0,6.0,62,0.00,,---,0.00,VWS V13.01,2013-09-05 19:10:00,
2013-09-05 14:11:00,81.4,67.1,30.14,ENE,64,0.0,6.0,62,0.00,,---,0.00,VWS V13.01,2013-09-05 19:11:00,
2013-09-05 14:12:00,81.4,67.1,30.14,ENE,64,5.0,6.0,62,0.00,,---,0.00,VWS V13.01,2013-09-05 19:12:00,
2013-09-05 14:13:00,81.4,68.1,30.13,ENE,64,0.0,6.0,64,0.00,,---,0.00,VWS V13.01,2013-09-05 19:13:00,
2013-09-05 14:14:00,81.4,68.1,30.13,ENE,64,3.0,6.0,64,0.00,,---,0.00,VWS V13.01,2013-09-05 19:14:00,
2013-09-05 14:15:00,81.4,68.1,30.14,ENE,64,5.0,6.0,64,0.00,,---,0.00,VWS V13.01,2013-09-05 19:15:00,
2013-09-05 14:16:00,81.4,67.6,30.13,ENE,64,3.0,6.0,63,0.00,,---,0.00,VWS V13.01,2013-09-05 19:16:00,
2013-09-05 14:17:00,81.5,69.1,30.14,ENE,64,3.0,6.0,66,0.00,,---,0.00,VWS V13.01,2013-09-05 19:17:00,
2013-09-05 14:18:00,81.5,67.7,30.13,ENE,64,2.0,6.0,63,0.00,,---,0.00,VWS V13.01,2013-09-05 19:18:00,
2013-09-05 14:19:00,81.6,68.2,30.14,ENE,64,4.0,6.0,64,0.00,,---,0.00,VWS V13.01,2013-09-05 19:19:00,
2013-09-05 14:20:00,81.6,67.8,30.13,ENE,64,2.0,6.0,63,0.00,,---,0.00,VWS V13.01,2013-09-05 19:20:00,
2013-09-05 14:21:00,81.5,67.2,30.13,ENE,64,0.0,6.0,62,0.00,,---,0.00,VWS V13.01,2013-09-05 19:21:00,
2013-09-05 14:22:00,81.6,67.3,30.13,ENE,64,0.0,6.0,62,0.00,,---,0.00,VWS V13.01,2013-09-05 19:22:00,
2013-09-05 14:23:00,81.7,70.1,30.13,ENE,64,0.0,6.0,68,0.00,,---,0.00,VWS V13.01,2013-09-05 19:23:00,
2013-09-05 14:24:00,81.8,70.2,30.14,ENE,64,2.0,7.0,68,0.00,,---,0.00,VWS V13.01,2013-09-05 19:24:00,
2013-09-05 14:25:00,81.8,67.5,30.14,ENE,64,2.0,7.0,62,0.00,,---,0.00,VWS V13.01,2013-09-05 19:25:00,
2013-09-05 14:26:00,81.9,67.6,30.14,ENE,64,1.0,7.0,62,0.00,,---,0.00,VWS V13.01,2013-09-05 19:26:00,
2013-09-05 14:27:00,81.9,67.1,30.14,ENE,64,3.0,7.0,61,0.00,,---,0.00,VWS V13.01,2013-09-05 19:27:00,
2013-09-05 14:28:00,81.9,67.6,30.14,ENE,64,1.0,7.0,62,0.00,,---,0.00,VWS V13.01,2013-09-05 19:28:00,
2013-09-05 14:29:00,81.9,66.7,30.14,ENE,64,2.0,7.0,60,0.00,,---,0.00,VWS V13.01,2013-09-05 19:29:00,
2013-09-05 14:30:00,81.9,67.1,30.14,ENE,64,0.0,7.0,61,0.00,,---,0.00,VWS V13.01,2013-09-05 19:30:00,
2013-09-05 14:31:00,81.9,67.6,30.13,ENE,64,0.0,0.0,62,0.00,,---,0.00,VWS V13.01,2013-09-05 19:31:00,
2013-09-05 14:32:00,81.9,66.7,30.13,ENE,64,0.0,0.0,60,0.00,,---,0.00,VWS V13.01,2013-09-05 19:32:00,
2013-09-05 14:33:00,81.9,67.6,30.13,ENE,64,1.0,1.0,62,0.00,,---,0.00,VWS V13.01,2013-09-05 19:33:00,
2013-09-05 14:34:00,82.0,67.7,30.13,ENE,64,0.0,1.0,62,0.00,,---,0.00,VWS V13.01,2013-09-05 19:34:00,
2013-09-05 14:35:00,82.0,66.8,30.13,ENE,64,0.0,2.0,60,0.00,,---,0.00,VWS V13.01,2013-09-05 19:35:00,
2013-09-05 14:36:00,82.0,68.2,30.13,ENE,64,4.0,4.0,63,0.00,,---,0.00,VWS V13.01,2013-09-05 19:36:00,
2013-09-05 14:37:00,82.0,67.2,30.13,ENE,64,6.0,6.0,61,0.00,,---,0.00,VWS V13.01,2013-09-05 19:37:00,
2013-09-05 14:38:00,82.0,67.7,30.13,ENE,73,8.0,9.0,62,0.00,,---,0.00,VWS V13.01,2013-09-05 19:38:00,
2013-09-05 14:39:00,81.8,67.5,30.13,ENE,74,3.0,9.0,62,0.00,,---,0.00,VWS V13.01,2013-09-05 19:39:00,
2013-09-05 14:40:00,81.8,67.5,30.13,ENE,74,0.0,9.0,62,0.00,,---,0.00,VWS V13.01,2013-09-05 19:40:00,
2013-09-05 14:41:00,81.7,67.4,30.13,ENE,74,3.0,9.0,62,0.00,,---,0.00,VWS V13.01,2013-09-05 19:41:00,
2013-09-05 14:42:00,81.7,67.9,30.13,ENE,74,0.0,9.0,63,0.00,,---,0.00,VWS V13.01,2013-09-05 19:42:00,
2013-09-05 14:43:00,81.7,66.9,30.13,ENE,74,0.0,9.0,61,0.00,,---,0.00,VWS V13.01,2013-09-05 19:43:00,
2013-09-05 14:44:00,81.6,66.9,30.12,ENE,74,0.0,9.0,61,0.00,,---,0.00,VWS V13.01,2013-09-05 19:44:00,
2013-09-05 14:45:00,81.6,67.3,30.13,ENE,74,0.0,9.0,62,0.00,,---,0.00,VWS V13.01,2013-09-05 19:45:00,
2013-09-05 14:46:00,81.7,67.9,30.12,ENE,74,3.0,9.0,63,0.00,,---,0.00,VWS V13.01,2013-09-05 19:46:00,
2013-09-05 14:47:00,81.6,66.4,30.12,ENE,74,0.0,9.0,60,0.00,,---,0.00,VWS V13.01,2013-09-05 19:47:00,
2013-09-05 14:48:00,81.6,67.8,30.12,ENE,74,1.0,9.0,63,0.00,,---,0.00,VWS V13.01,2013-09-05 19:48:00,
2013-09-05 14:49:00,81.7,67.9,30.12,ENE,74,0.0,9.0,63,0.00,,---,0.00,VWS V13.01,2013-09-05 19:49:00,
2013-09-05 14:50:00,81.8,68.4,30.12,ENE,74,4.0,9.0,64,0.00,,---,0.00,VWS V13.01,2013-09-05 19:50:00,
2013-09-05 14:51:00,81.8,68.0,30.12,ENE,74,1.0,9.0,63,0.00,,---,0.00,VWS V13.01,2013-09-05 19:51:00,
2013-09-05 14:52:00,81.8,67.5,30.12,ENE,74,0.0,9.0,62,0.00,,---,0.00,VWS V13.01,2013-09-05 19:52:00,
2013-09-05 14:53:00,81.8,68.0,30.12,ENE,74,1.0,9.0,63,0.00,,---,0.00,VWS V13.01,2013-09-05 19:53:00,
2013-09-05 14:54:00,81.9,68.5,30.12,ENE,74,4.0,9.0,64,0.00,,---,0.00,VWS V13.01,2013-09-05 19:54:00,
2013-09-05 14:55:00,81.9,68.1,30.12,ENE,74,4.0,9.0,63,0.00,,---,0.00,VWS V13.01,2013-09-05 19:55:00,
2013-09-05 14:56:00,81.8,67.1,30.12,ENE,74,0.0,9.0,61,0.00,,---,0.00,VWS V13.01,2013-09-05 19:56:00,
2013-09-05 14:57:00,81.8,67.1,30.12,ENE,74,0.0,9.0,61,0.00,,---,0.00,VWS V13.01,2013-09-05 19:57:00,
2013-09-05 14:58:00,81.8,67.1,30.12,ENE,74,0.0,9.0,61,0.00,,---,0.00,VWS V13.01,2013-09-05 19:58:00,
2013-09-05 14:59:00,81.8,68.0,30.12,ENE,74,0.0,9.0,63,0.00,,---,0.00,VWS V13.01,2013-09-05 19:59:00,
2013-09-05 15:00:00,81.8,67.5,30.12,ENE,74,0.0,9.0,62,0.00,,---,0.00,VWS V13.01,2013-09-05 20:00:00,
2013-09-05 15:01:00,81.8,67.5,30.12,ENE,74,0.0,1.0,62,0.00,,---,0.00,VWS V13.01,2013-09-05 20:01:00,
2013-09-05 15:02:00,81.9,66.7,30.12,ENE,74,0.0,1.0,60,0.00,,---,0.00,VWS V13.01,2013-09-05 20:02:00,
2013-09-05 15:03:00,81.9,67.1,30.12,ENE,74,3.0,3.0,61,0.00,,---,0.00,VWS V13.01,2013-09-05 20:03:00,
2013-09-05 15:04:00,81.8,67.1,30.12,ENE,74,0.0,4.0,61,0.00,,---,0.00,VWS V13.01,2013-09-05 20:04:00,
2013-09-05 15:05:00,81.8,68.0,30.12,ENE,74,0.0,4.0,63,0.00,,---,0.00,VWS V13.01,2013-09-05 20:05:00,
2013-09-05 15:06:00,81.8,67.5,30.12,ENE,74,5.0,5.0,62,0.00,,---,0.00,VWS V13.01,2013-09-05 20:06:00,
2013-09-05 15:07:00,81.8,67.5,30.12,ENE,74,0.0,7.0,62,0.00,,---,0.00,VWS V13.01,2013-09-05 20:07:00,
2013-09-05 15:08:00,81.8,68.0,30.12,ENE,74,4.0,7.0,63,0.00,,---,0.00,VWS V13.01,2013-09-05 20:08:00,
2013-09-05 15:09:00,81.7,67.9,30.12,ENE,74,0.0,7.0,63,0.00,,---,0.00,VWS V13.01,2013-09-05 20:09:00,
2013-09-05 15:10:00,81.7,68.3,30.12,ENE,74,0.0,7.0,64,0.00,,---,0.00,VWS V13.01,2013-09-05 20:10:00,
2013-09-05 15:11:00,81.7,68.3,30.12,ENE,74,0.0,7.0,64,0.00,,---,0.00,VWS V13.01,2013-09-05 20:11:00,
2013-09-05 15:12:00,81.7,68.3,30.12,ENE,74,0.0,7.0,64,0.00,,---,0.00,VWS V13.01,2013-09-05 20:12:00,
2013-09-05 15:13:00,81.7,68.8,30.12,ENE,74,0.0,7.0,65,0.00,,---,0.00,VWS V13.01,2013-09-05 20:13:00,
2013-09-05 15:14:00,81.8,69.8,30.12,ENE,74,0.0,7.0,67,0.00,,---,0.00,VWS V13.01,2013-09-05 20:14:00,
2013-09-05 15:15:00,81.8,68.4,30.12,ENE,74,0.0,7.0,64,0.00,,---,0.00,VWS V13.01,2013-09-05 20:15:00,
2013-09-05 15:16:00,81.8,68.4,30.12,ENE,74,0.0,7.0,64,0.00,,---,0.00,VWS V13.01,2013-09-05 20:16:00,
2013-09-05 15:17:00,81.8,69.3,30.12,ENE,74,0.0,7.0,66,0.00,,---,0.00,VWS V13.01,2013-09-05 20:17:00,
2013-09-05 15:18:00,81.9,69.4,30.12,ENE,74,0.0,7.0,66,0.00,,---,0.00,VWS V13.01,2013-09-05 20:18:00,
2013-09-05 15:19:00,81.9,69.0,30.12,ENE,74,0.0,7.0,65,0.00,,---,0.00,VWS V13.01,2013-09-05 20:19:00,
2013-09-05 15:20:00,81.9,67.6,30.12,ENE,74,4.0,7.0,62,0.00,,---,0.00,VWS V13.01,2013-09-05 20:20:00,
2013-09-05 15:21:00,81.9,68.5,30.12,ENE,74,0.0,7.0,64,0.00,,---,0.00,VWS V13.01,2013-09-05 20:21:00,
2013-09-05 15:22:00,81.8,67.5,30.12,ENE,74,0.0,7.0,62,0.00,,---,0.00,VWS V13.01,2013-09-05 20:22:00,
2013-09-05 15:23:00,81.8,67.5,30.12,ENE,74,3.0,7.0,62,0.00,,---,0.00,VWS V13.01,2013-09-05 20:23:00,
2013-09-05 15:24:00,81.8,67.5,30.12,ENE,74,0.0,7.0,62,0.00,,---,0.00,VWS V13.01,2013-09-05 20:24:00,
2013-09-05 15:25:00,81.8,68.0,30.12,ENE,74,0.0,7.0,63,0.00,,---,0.00,VWS V13.01,2013-09-05 20:25:00,
2013-09-05 15:26:00,81.8,68.9,30.12,ENE,74,0.0,7.0,65,0.00,,---,0.00,VWS V13.01,2013-09-05 20:26:00,
2013-09-05 15:27:00,81.8,68.4,30.12,ENE,74,0.0,7.0,64,0.00,,---,0.00,VWS V13.01,2013-09-05 20:27:00,
2013-09-05 15:28:00,81.8,67.5,30.12,ENE,74,0.0,7.0,62,0.00,,---,0.00,VWS V13.01,2013-09-05 20:28:00,
2013-09-05 15:29:00,81.9,68.1,30.12,ENE,74,0.0,7.0,63,0.00,,---,0.00,VWS V13.01,2013-09-05 20:29:00,
2013-09-05 15:30:00,81.9,69.0,30.12,ENE,74,0.0,7.0,65,0.00,,---,0.00,VWS V13.01,2013-09-05 20:30:00,
2013-09-05 15:31:00,82.0,68.6,30.12,ENE,74,1.0,4.0,64,0.00,,---,0.00,VWS V13.01,2013-09-05 20:31:00,
2013-09-05 15:32:00,82.0,69.5,30.12,ENE,74,0.0,4.0,66,0.00,,---,0.00,VWS V13.01,2013-09-05 20:32:00,
2013-09-05 15:33:00,82.1,69.2,30.12,ENE,74,0.0,4.0,65,0.00,,---,0.00,VWS V13.01,2013-09-05 20:33:00,
2013-09-05 15:34:00,82.1,68.7,30.12,ENE,74,1.0,4.0,64,0.00,,---,0.00,VWS V13.01,2013-09-05 20:34:00,
2013-09-05 15:35:00,82.1,68.7,30.12,ENE,74,0.0,4.0,64,0.00,,---,0.00,VWS V13.01,2013-09-05 20:35:00,
2013-09-05 15:36:00,82.1,68.7,30.12,ENE,74,2.0,4.0,64,0.00,,---,0.00,VWS V13.01,2013-09-05 20:36:00,
2013-09-05 15:37:00,82.1,68.3,30.12,ENE,74,0.0,4.0,63,0.00,,---,0.00,VWS V13.01,2013-09-05 20:37:00,
2013-09-05 15:38:00,82.1,68.7,30.12,ENE,74,0.0,4.0,64,0.00,,---,0.00,VWS V13.01,2013-09-05 20:38:00,
2013-09-05 15:39:00,82.1,68.3,30.12,ENE,74,0.0,4.0,63,0.00,,---,0.00,VWS V13.01,2013-09-05 20:39:00,
2013-09-05 15:40:00,82.1,68.7,30.12,ENE,74,3.0,4.0,64,0.00,,---,0.00,VWS V13.01,2013-09-05 20:40:00,
2013-09-05 15:41:00,82.0,68.2,30.12,ENE,74,2.0,4.0,63,0.00,,---,0.00,VWS V13.01,2013-09-05 20:41:00,
2013-09-05 15:42:00,82.0,67.7,30.12,ENE,74,0.0,4.0,62,0.00,,---,0.00,VWS V13.01,2013-09-05 20:42:00,
2013-09-05 15:43:00,81.9,69.0,30.12,ENE,74,0.0,4.0,65,0.00,,---,0.00,VWS V13.01,2013-09-05 20:43:00,
2013-09-05 15:44:00,81.9,68.5,30.12,ENE,74,0.0,4.0,64,0.00,,---,0.00,VWS V13.01,2013-09-05 20:44:00,
2013-09-05 15:45:00,81.9,68.1,30.12,ENE,74,0.0,4.0,63,0.00,,---,0.00,VWS V13.01,2013-09-05 20:45:00,
2013-09-05 15:46:00,81.8,68.4,30.12,ENE,74,4.0,5.0,64,0.00,,---,0.00,VWS V13.01,2013-09-05 20:46:00,
2013-09-05 15:47:00,81.8,68.4,30.12,ENE,74,0.0,5.0,64,0.00,,---,0.00,VWS V13.01,2013-09-05 20:47:00,
2013-09-05 15:48:00,81.8,68.4,30.12,ENE,74,0.0,5.0,64,0.00,,---,0.00,VWS V13.01,2013-09-05 20:48:00,
2013-09-05 15:49:00,81.8,68.9,30.12,ENE,74,0.0,5.0,65,0.00,,---,0.00,VWS V13.01,2013-09-05 20:49:00,
2013-09-05 15:50:00,81.9,69.4,30.12,ENE,74,0.0,5.0,66,0.00,,---,0.00,VWS V13.01,2013-09-05 20:50:00,
2013-09-05 15:51:00,81.9,69.4,30.12,ENE,74,2.0,5.0,66,0.00,,---,0.00,VWS V13.01,2013-09-05 20:51:00,
2013-09-05 15:52:00,81.9,68.5,30.12,ENE,74,4.0,5.0,64,0.00,,---,0.00,VWS V13.01,2013-09-05 20:52:00,
2013-09-05 15:53:00,81.9,69.4,30.12,ENE,74,0.0,5.0,66,0.00,,---,0.00,VWS V13.01,2013-09-05 20:53:00,
2013-09-05 15:54:00,81.9,68.5,30.12,ENE,74,0.0,5.0,64,0.00,,---,0.00,VWS V13.01,2013-09-05 20:54:00,
2013-09-05 15:55:00,82.0,68.6,30.12,ENE,74,0.0,5.0,64,0.00,,---,0.00,VWS V13.01,2013-09-05 20:55:00,
2013-09-05 15:56:00,82.0,68.2,30.12,ENE,74,0.0,5.0,63,0.00,,---,0.00,VWS V13.01,2013-09-05 20:56:00,
2013-09-05 15:57:00,82.0,68.6,30.12,ENE,74,0.0,5.0,64,0.00,,---,0.00,VWS V13.01,2013-09-05 20:57:00,
2013-09-05 15:58:00,82.0,67.2,30.12,ENE,74,7.0,7.0,61,0.00,,---,0.00,VWS V13.01,2013-09-05 20:58:00,
2013-09-05 15:59:00,82.0,66.8,30.12,ENE,74,5.0,7.0,60,0.00,,---,0.00,VWS V13.01,2013-09-05 20:59:00,
2013-09-05 16:00:00,81.9,65.7,30.12,ENE,74,0.0,7.0,58,0.00,,---,0.00,VWS V13.01,2013-09-05 21:00:00,
2013-09-05 16:01:00,81.8,66.1,30.12,ENE,74,2.0,5.0,59,0.00,,---,0.00,VWS V13.01,2013-09-05 21:01:00,
2013-09-05 16:02:00,81.7,66.5,30.12,ENE,74,2.0,5.0,60,0.00,,---,0.00,VWS V13.01,2013-09-05 21:02:00,
2013-09-05 16:03:00,81.6,66.4,30.12,ENE,74,5.0,7.0,60,0.00,,---,0.00,VWS V13.01,2013-09-05 21:03:00,
2013-09-05 16:04:00,81.6,66.9,30.12,ENE,74,0.0,7.0,61,0.00,,---,0.00,VWS V13.01,2013-09-05 21:04:00,
2013-09-05 16:05:00,81.5,67.2,30.12,ENE,74,4.0,7.0,62,0.00,,---,0.00,VWS V13.01,2013-09-05 21:05:00,
2013-09-05 16:06:00,81.4,67.1,30.12,ENE,74,2.0,7.0,62,0.00,,---,0.00,VWS V13.01,2013-09-05 21:06:00,
2013-09-05 16:07:00,81.4,66.7,30.12,ENE,74,0.0,7.0,61,0.00,,---,0.00,VWS V13.01,2013-09-05 21:07:00,
2013-09-05 16:08:00,81.4,66.7,30.12,ENE,74,1.0,7.0,61,0.00,,---,0.00,VWS V13.01,2013-09-05 21:08:00,
2013-09-05 16:09:00,81.4,67.1,30.12,ENE,74,0.0,7.0,62,0.00,,---,0.00,VWS V13.01,2013-09-05 21:09:00,
2013-09-05 16:10:00,81.4,67.6,30.12,ENE,74,0.0,7.0,63,0.00,,---,0.00,VWS V13.01,2013-09-05 21:10:00,
2013-09-05 16:11:00,81.4,67.1,30.12,ENE,74,0.0,7.0,62,0.00,,---,0.00,VWS V13.01,2013-09-05 21:11:00,
2013-09-05 16:12:00,81.4,67.6,30.12,ENE,74,0.0,7.0,63,0.00,,---,0.00,VWS V13.01,2013-09-05 21:12:00,
2013-09-05 16:13:00,81.4,67.1,30.12,ENE,74,0.0,7.0,62,0.00,,---,0.00,VWS V13.01,2013-09-05 21:13:00,
2013-09-05 16:14:00,81.5,67.7,30.12,ENE,74,1.0,7.0,63,0.00,,---,0.00,VWS V13.01,2013-09-05 21:14:00,
2013-09-05 16:15:00,81.5,68.2,30.12,ENE,74,4.0,7.0,64,0.00,,---,0.00,VWS V13.01,2013-09-05 21:15:00,
2013-09-05 16:16:00,81.5,66.8,30.12,ENE,74,0.0,7.0,61,0.00,,---,0.00,VWS V13.01,2013-09-05 21:16:00,
2013-09-05 16:17:00,81.5,67.2,30.12,ENE,74,1.0,7.0,62,0.00,,---,0.00,VWS V13.01,2013-09-05 21:17:00,
2013-09-05 16:18:00,81.5,66.8,30.12,ENE,74,3.0,7.0,61,0.00,,---,0.00,VWS V13.01,2013-09-05 21:18:00,
2013-09-05 16:19:00,81.5,66.8,30.12,ENE,74,0.0,7.0,61,0.00,,---,0.00,VWS V13.01,2013-09-05 21:19:00,
2013-09-05 16:20:00,81.5,67.2,30.12,ENE,74,0.0,7.0,62,0.00,,---,0.00,VWS V13.01,2013-09-05 21:20:00,
2013-09-05 16:21:00,81.5,67.2,30.12,ENE,74,0.0,7.0,62,0.00,,---,0.00,VWS V13.01,2013-09-05 21:21:00,
2013-09-05 16:22:00,81.5,67.7,30.12,ENE,74,0.0,7.0,63,0.00,,---,0.00,VWS V13.01,2013-09-05 21:22:00,
2013-09-05 16:23:00,81.6,67.8,30.12,ENE,74,1.0,7.0,63,0.00,,---,0.00,VWS V13.01,2013-09-05 21:23:00,
2013-09-05 16:24:00,81.6,67.3,30.12,ENE,74,1.0,7.0,62,0.00,,---,0.00,VWS V13.01,2013-09-05 21:24:00,
2013-09-05 16:25:00,81.6,66.9,30.12,ENE,74,3.0,7.0,61,0.00,,---,0.00,VWS V13.01,2013-09-05 21:25:00,
2013-09-05 16:26:00,81.5,66.8,30.12,ENE,74,0.0,7.0,61,0.00,,---,0.00,VWS V13.01,2013-09-05 21:26:00,
2013-09-05 16:27:00,81.5,66.8,30.12,ENE,74,0.0,7.0,61,0.00,,---,0.00,VWS V13.01,2013-09-05 21:27:00,
2013-09-05 16:28:00,81.5,66.8,30.12,ENE,74,0.0,7.0,61,0.00,,---,0.00,VWS V13.01,2013-09-05 21:28:00,
2013-09-05 16:29:00,81.5,67.2,30.12,ENE,74,2.0,7.0,62,0.00,,---,0.00,VWS V13.01,2013-09-05 21:29:00,
2013-09-05 16:30:00,81.5,67.2,30.12,ENE,74,0.0,7.0,62,0.00,,---,0.00,VWS V13.01,2013-09-05 21:30:00,
2013-09-05 16:31:00,81.5,67.7,30.12,ENE,74,0.0,0.0,63,0.00,,---,0.00,VWS V13.01,2013-09-05 21:31:00,
2013-09-05 16:32:00,81.5,67.7,30.12,ENE,74,0.0,0.0,63,0.00,,---,0.00,VWS V13.01,2013-09-05 21:32:00,
2013-09-05 16:33:00,81.5,67.2,30.12,ENE,74,0.0,1.0,62,0.00,,---,0.00,VWS V13.01,2013-09-05 21:33:00,
2013-09-05 16:34:00,81.5,67.7,30.12,ENE,74,4.0,4.0,63,0.00,,---,0.00,VWS V13.01,2013-09-05 21:34:00,
2013-09-05 16:35:00,81.4,66.7,30.12,ENE,74,0.0,4.0,61,0.00,,---,0.00,VWS V13.01,2013-09-05 21:35:00,
2013-09-05 16:36:00,81.4,66.7,30.12,ENE,74,0.0,4.0,61,0.00,,---,0.00,VWS V13.01,2013-09-05 21:36:00,
2013-09-05 16:37:00,81.4,67.6,30.12,ENE,74,4.0,4.0,63,0.00,,---,0.00,VWS V13.01,2013-09-05 21:37:00,
2013-09-05 16:38:00,81.4,66.7,30.12,ENE,74,0.0,4.0,61,0.00,,---,0.00,VWS V13.01,2013-09-05 21:38:00,
2013-09-05 16:39:00,81.4,67.1,30.12,ENE,74,0.0,4.0,62,0.00,,---,0.00,VWS V13.01,2013-09-05 21:39:00,
2013-09-05 16:40:00,81.4,67.6,30.12,ENE,74,0.0,4.0,63,0.00,,---,0.00,VWS V13.01,2013-09-05 21:40:00,
2013-09-05 16:41:00,81.4,67.6,30.12,ENE,74,0.0,4.0,63,0.00,,---,0.00,VWS V13.01,2013-09-05 21:41:00,
2013-09-05 16:42:00,81.5,67.7,30.12,ENE,74,0.0,4.0,63,0.00,,---,0.00,VWS V13.01,2013-09-05 21:42:00,
2013-09-05 16:43:00,81.5,68.6,30.12,ENE,74,2.0,4.0,65,0.00,,---,0.00,VWS V13.01,2013-09-05 21:43:00,
2013-09-05 16:44:00,81.5,68.2,30.12,ENE,74,0.0,4.0,64,0.00,,---,0.00,VWS V13.01,2013-09-05 21:44:00,
2013-09-05 16:45:00,81.6,67.8,30.11,ENE,74,2.0,4.0,63,0.00,,---,0.00,VWS V13.01,2013-09-05 21:45:00,
2013-09-05 16:46:00,81.6,67.8,30.12,ENE,74,1.0,4.0,63,0.00,,---,0.00,VWS V13.01,2013-09-05 21:46:00,
2013-09-05 16:47:00,81.6,68.2,30.12,ENE,74,0.0,4.0,64,0.00,,---,0.00,VWS V13.01,2013-09-05 21:47:00,
2013-09-05 16:48:00,81.6,67.8,30.11,ENE,74,0.0,4.0,63,0.00,,---,0.00,VWS V13.01,2013-09-05 21:48:00,
2013-09-05 16:49:00,81.6,67.8,30.12,ENE,74,1.0,4.0,63,0.00,,---,0.00,VWS V13.01,2013-09-05 21:49:00,
2013-09-05 16:50:00,81.5,67.2,30.12,ENE,74,0.0,4.0,62,0.00,,---,0.00,VWS V13.01,2013-09-05 21:50:00,
2013-09-05 16:51:00,81.5,67.2,30.12,ENE,74,0.0,4.0,62,0.00,,---,0.00,VWS V13.01,2013-09-05 21:51:00,
2013-09-05 16:52:00,81.5,67.7,30.11,ENE,74,0.0,4.0,63,0.00,,---,0.00,VWS V13.01,2013-09-05 21:52:00,
2013-09-05 16:53:00,81.5,67.7,30.11,ENE,74,0.0,4.0,63,0.00,,---,0.00,VWS V13.01,2013-09-05 21:53:00,
2013-09-05 16:54:00,81.5,67.7,30.11,ENE,74,0.0,4.0,63,0.00,,---,0.00,VWS V13.01,2013-09-05 21:54:00,
2013-09-05 16:55:00,81.4,67.6,30.11,ENE,74,0.0,4.0,63,0.00,,---,0.00,VWS V13.01,2013-09-05 21:55:00,
2013-09-05 16:56:00,81.4,68.1,30.11,ENE,74,0.0,4.0,64,0.00,,---,0.00,VWS V13.01,2013-09-05 21:56:00,
2013-09-05 16:57:00,81.4,67.6,30.11,ENE,74,1.0,4.0,63,0.00,,---,0.00,VWS V13.01,2013-09-05 21:57:00,
2013-09-05 16:58:00,81.4,67.6,30.11,ENE,74,0.0,4.0,63,0.00,,---,0.00,VWS V13.01,2013-09-05 21:58:00,
2013-09-05 16:59:00,81.4,68.1,30.11,ENE,74,0.0,4.0,64,0.00,,---,0.00,VWS V13.01,2013-09-05 21:59:00,
2013-09-05 17:00:00,81.4,68.1,30.11,ENE,74,0.0,4.0,64,0.00,,---,0.00,VWS V13.01,2013-09-05 22:00:00,
2013-09-05 17:01:00,81.3,67.5,30.11,ENE,74,0.0,1.0,63,0.00,,---,0.00,VWS V13.01,2013-09-05 22:01:00,
2013-09-05 17:02:00,81.3,67.5,30.11,ENE,74,0.0,4.0,63,0.00,,---,0.00,VWS V13.01,2013-09-05 22:02:00,
2013-09-05 17:03:00,81.2,67.4,30.11,ENE,74,0.0,4.0,63,0.00,,---,0.00,VWS V13.01,2013-09-05 22:03:00,
2013-09-05 17:04:00,81.2,67.9,30.11,ENE,74,0.0,4.0,64,0.00,,---,0.00,VWS V13.01,2013-09-05 22:04:00,
2013-09-05 17:05:00,81.2,66.9,30.11,ENE,74,0.0,4.0,62,0.00,,---,0.00,VWS V13.01,2013-09-05 22:05:00,
2013-09-05 17:06:00,81.2,67.9,30.11,ENE,74,1.0,4.0,64,0.00,,---,0.00,VWS V13.01,2013-09-05 22:06:00,
2013-09-05 17:07:00,81.1,67.3,30.11,ENE,74,0.0,4.0,63,0.00,,---,0.00,VWS V13.01,2013-09-05 22:07:00,
2013-09-05 17:08:00,81.1,67.8,30.11,ENE,74,0.0,4.0,64,0.00,,---,0.00,VWS V13.01,2013-09-05 22:08:00,
2013-09-05 17:09:00,81.1,67.8,30.11,ENE,74,0.0,4.0,64,0.00,,---,0.00,VWS V13.01,2013-09-05 22:09:00,
2013-09-05 17:10:00,81.1,67.8,30.11,ENE,74,0.0,4.0,64,0.00,,---,0.00,VWS V13.01,2013-09-05 22:10:00,
2013-09-05 17:11:00,81.0,67.7,30.11,ENE,74,0.0,4.0,64,0.00,,---,0.00,VWS V13.01,2013-09-05 22:11:00,
2013-09-05 17:12:00,81.0,67.7,30.11,ENE,74,0.0,4.0,64,0.00,,---,0.00,VWS V13.01,2013-09-05 22:12:00,
2013-09-05 17:13:00,80.9,68.0,30.11,ENE,74,0.0,4.0,65,0.00,,---,0.00,VWS V13.01,2013-09-05 22:13:00,
2013-09-05 17:14:00,80.9,68.0,30.11,ENE,74,0.0,4.0,65,0.00,,---,0.00,VWS V13.01,2013-09-05 22:14:00,
2013-09-05 17:15:00,80.9,68.5,30.11,ENE,74,0.0,4.0,66,0.00,,---,0.00,VWS V13.01,2013-09-05 22:15:00,
2013-09-05 17:16:00,80.9,68.5,30.11,ENE,74,0.0,4.0,66,0.00,,---,0.00,VWS V13.01,2013-09-05 22:16:00,
2013-09-05 17:17:00,80.8,68.8,30.11,ENE,74,0.0,4.0,67,0.00,,---,0.00,VWS V13.01,2013-09-05 22:17:00,
2013-09-05 17:18:00,80.8,68.8,30.11,ENE,74,0.0,4.0,67,0.00,,---,0.00,VWS V13.01,2013-09-05 22:18:00,
2013-09-05 17:19:00,80.8,68.8,30.11,ENE,74,0.0,4.0,67,0.00,,---,0.00,VWS V13.01,2013-09-05 22:19:00,
2013-09-05 17:20:00,80.8,68.4,30.11,ENE,74,0.0,4.0,66,0.00,,---,0.00,VWS V13.01,2013-09-05 22:20:00,
2013-09-05 17:21:00,80.8,68.4,30.11,ENE,74,0.0,4.0,66,0.00,,---,0.00,VWS V13.01,2013-09-05 22:21:00,
2013-09-05 17:22:00,80.7,67.8,30.11,ENE,74,0.0,4.0,65,0.00,,---,0.00,VWS V13.01,2013-09-05 22:22:00,
2013-09-05 17:23:00,80.7,67.8,30.11,ENE,74,0.0,4.0,65,0.00,,---,0.00,VWS V13.01,2013-09-05 22:23:00,
2013-09-05 17:24:00,80.7,68.3,30.11,ENE,74,0.0,4.0,66,0.00,,---,0.00,VWS V13.01,2013-09-05 22:24:00,
2013-09-05 17:25:00,80.7,68.3,30.11,ENE,74,0.0,4.0,66,0.00,,---,0.00,VWS V13.01,2013-09-05 22:25:00,
2013-09-05 17:26:00,80.7,68.3,30.11,ENE,74,0.0,4.0,66,0.00,,---,0.00,VWS V13.01,2013-09-05 22:26:00,
2013-09-05 17:27:00,80.7,68.3,30.11,ENE,74,0.0,4.0,66,0.00,,---,0.00,VWS V13.01,2013-09-05 22:27:00,
2013-09-05 17:28:00,80.7,69.2,30.11,ENE,74,0.0,4.0,68,0.00,,---,0.00,VWS V13.01,2013-09-05 22:28:00,
2013-09-05 17:29:00,80.7,67.8,30.11,ENE,74,1.0,4.0,65,0.00,,---,0.00,VWS V13.01,2013-09-05 22:29:00,
2013-09-05 17:30:00,80.6,67.3,30.11,ENE,74,0.0,4.0,64,0.00,,---,0.00,VWS V13.01,2013-09-05 22:30:00,
2013-09-05 17:31:00,80.6,68.2,30.10,ENE,74,0.0,0.0,66,0.00,,---,0.00,VWS V13.01,2013-09-05 22:31:00,
2013-09-05 17:32:00,80.5,68.1,30.11,ENE,74,0.0,0.0,66,0.00,,---,0.00,VWS V13.01,2013-09-05 22:32:00,
2013-09-05 17:33:00,80.5,67.7,30.11,ENE,74,1.0,2.0,65,0.00,,---,0.00,VWS V13.01,2013-09-05 22:33:00,
2013-09-05 17:34:00,80.5,68.1,30.11,ENE,74,0.0,2.0,66,0.00,,---,0.00,VWS V13.01,2013-09-05 22:34:00,
2013-09-05 17:35:00,80.5,68.1,30.11,ENE,74,0.0,2.0,66,0.00,,---,0.00,VWS V13.01,2013-09-05 22:35:00,
2013-09-05 17:36:00,80.4,68.4,30.11,ENE,74,0.0,2.0,67,0.00,,---,0.00,VWS V13.01,2013-09-05 22:36:00,
2013-09-05 17:37:00,80.4,68.4,30.11,ENE,74,0.0,2.0,67,0.00,,---,0.00,VWS V13.01,2013-09-05 22:37:00,
2013-09-05 17:38:00,80.4,68.4,30.10,ENE,74,0.0,2.0,67,0.00,,---,0.00,VWS V13.01,2013-09-05 22:38:00,
2013-09-05 17:39:00,80.3,68.8,30.11,ENE,74,0.0,2.0,68,0.00,,---,0.00,VWS V13.01,2013-09-05 22:39:00,
2013-09-05 17:40:00,80.3,68.3,30.10,ENE,74,0.0,2.0,67,0.00,,---,0.00,VWS V13.01,2013-09-05 22:40:00,
2013-09-05 17:41:00,80.3,68.3,30.11,ENE,74,0.0,2.0,67,0.00,,---,0.00,VWS V13.01,2013-09-05 22:41:00,
2013-09-05 17:42:00,80.3,68.3,30.10,ENE,74,0.0,2.0,67,0.00,,---,0.00,VWS V13.01,2013-09-05 22:42:00,
2013-09-05 17:43:00,80.2,68.7,30.10,ENE,74,0.0,2.0,68,0.00,,---,0.00,VWS V13.01,2013-09-05 22:43:00,
2013-09-05 17:44:00,80.2,69.1,30.11,ENE,74,0.0,2.0,69,0.00,,---,0.00,VWS V13.01,2013-09-05 22:44:00,
2013-09-05 17:45:00,80.2,68.7,30.10,ENE,74,0.0,2.0,68,0.00,,---,0.00,VWS V13.01,2013-09-05 22:45:00,
2013-09-05 17:46:00,80.2,69.1,30.11,ENE,74,0.0,2.0,69,0.00,,---,0.00,VWS V13.01,2013-09-05 22:46:00,
2013-09-05 17:47:00,80.2,68.7,30.10,ENE,74,0.0,2.0,68,0.00,,---,0.00,VWS V13.01,2013-09-05 22:47:00,
2013-09-05 17:48:00,80.1,69.0,30.10,ENE,74,0.0,2.0,69,0.00,,---,0.00,VWS V13.01,2013-09-05 22:48:00,
2013-09-05 17:49:00,80.1,69.0,30.10,ENE,74,0.0,2.0,69,0.00,,---,0.00,VWS V13.01,2013-09-05 22:49:00,
2013-09-05 17:50:00,80.1,69.0,30.10,ENE,74,0.0,2.0,69,0.00,,---,0.00,VWS V13.01,2013-09-05 22:50:00,
2013-09-05 17:51:00,80.0,68.9,30.10,ENE,74,0.0,2.0,69,0.00,,---,0.00,VWS V13.01,2013-09-05 22:51:00,
2013-09-05 17:52:00,80.0,68.9,30.10,ENE,74,0.0,2.0,69,0.00,,---,0.00,VWS V13.01,2013-09-05 22:52:00,
2013-09-05 17:53:00,80.0,68.9,30.10,ENE,74,0.0,2.0,69,0.00,,---,0.00,VWS V13.01,2013-09-05 22:53:00,
2013-09-05 17:54:00,79.9,69.2,30.10,ENE,74,0.0,2.0,70,0.00,,---,0.00,VWS V13.01,2013-09-05 22:54:00,
2013-09-05 17:55:00,79.9,69.2,30.10,ENE,74,0.0,2.0,70,0.00,,---,0.00,VWS V13.01,2013-09-05 22:55:00,
2013-09-05 17:56:00,79.8,69.2,30.10,ENE,74,0.0,2.0,70,0.00,,---,0.00,VWS V13.01,2013-09-05 22:56:00,
2013-09-05 17:57:00,79.8,69.6,30.10,ENE,74,0.0,2.0,71,0.00,,---,0.00,VWS V13.01,2013-09-05 22:57:00,
2013-09-05 17:58:00,79.7,69.5,30.10,ENE,74,0.0,2.0,71,0.00,,---,0.00,VWS V13.01,2013-09-05 22:58:00,
2013-09-05 17:59:00,79.7,69.5,30.10,ENE,74,0.0,2.0,71,0.00,,---,0.00,VWS V13.01,2013-09-05 22:59:00,
2013-09-05 18:00:00,79.6,69.4,30.10,ENE,74,0.0,2.0,71,0.00,,---,0.00,VWS V13.01,2013-09-05 23:00:00,
2013-09-05 18:01:00,79.5,69.3,30.11,ENE,74,0.0,0.0,71,0.00,,---,0.00,VWS V13.01,2013-09-05 23:01:00,
2013-09-05 18:02:00,79.5,69.7,30.10,ENE,74,0.0,0.0,72,0.00,,---,0.00,VWS V13.01,2013-09-05 23:02:00,
2013-09-05 18:03:00,79.4,69.6,30.10,ENE,74,0.0,0.0,72,0.00,,---,0.00,VWS V13.01,2013-09-05 23:03:00,
2013-09-05 18:04:00,79.3,69.5,30.10,ENE,74,0.0,0.0,72,0.00,,---,0.00,VWS V13.01,2013-09-05 23:04:00,
2013-09-05 18:05:00,79.2,69.4,30.10,ENE,74,0.0,0.0,72,0.00,,---,0.00,VWS V13.01,2013-09-05 23:05:00,
2013-09-05 18:06:00,79.2,69.4,30.10,ENE,74,0.0,0.0,72,0.00,,---,0.00,VWS V13.01,2013-09-05 23:06:00,
2013-09-05 18:07:00,79.1,69.3,30.10,ENE,74,0.0,0.0,72,0.00,,---,0.00,VWS V13.01,2013-09-05 23:07:00,
2013-09-05 18:08:00,79.0,69.2,30.10,ENE,74,0.0,0.0,72,0.00,,---,0.00,VWS V13.01,2013-09-05 23:08:00,
2013-09-05 18:09:00,78.9,69.1,30.10,ENE,74,0.0,0.0,72,0.00,,---,0.00,VWS V13.01,2013-09-05 23:09:00,
2013-09-05 18:10:00,78.8,69.0,30.10,ENE,74,0.0,0.0,72,0.00,,---,0.00,VWS V13.01,2013-09-05 23:10:00,
2013-09-05 18:11:00,78.7,69.3,30.10,ENE,74,0.0,0.0,73,0.00,,---,0.00,VWS V13.01,2013-09-05 23:11:00,
2013-09-05 18:12:00,78.7,69.3,30.10,ENE,74,0.0,0.0,73,0.00,,---,0.00,VWS V13.01,2013-09-05 23:12:00,
2013-09-05 18:13:00,78.7,69.3,30.10,ENE,74,0.0,0.0,73,0.00,,---,0.00,VWS V13.01,2013-09-05 23:13:00,
2013-09-05 18:14:00,78.7,69.3,30.10,ENE,74,0.0,0.0,73,0.00,,---,0.00,VWS V13.01,2013-09-05 23:14:00,
2013-09-05 18:15:00,78.5,69.1,30.10,ENE,74,0.0,0.0,73,0.00,,---,0.00,VWS V13.01,2013-09-05 23:15:00,
2013-09-05 18:16:00,78.4,69.0,30.10,ENE,74,0.0,0.0,73,0.00,,---,0.00,VWS V13.01,2013-09-05 23:16:00,
2013-09-05 18:17:00,78.3,68.9,30.10,ENE,74,0.0,0.0,73,0.00,,---,0.00,VWS V13.01,2013-09-05 23:17:00,
2013-09-05 18:18:00,78.2,68.8,30.10,ENE,74,0.0,0.0,73,0.00,,---,0.00,VWS V13.01,2013-09-05 23:18:00,
2013-09-05 18:19:00,78.1,69.1,30.10,ENE,74,0.0,0.0,74,0.00,,---,0.00,VWS V13.01,2013-09-05 23:19:00,
2013-09-05 18:20:00,78.0,69.1,30.10,ENE,74,0.0,0.0,74,0.00,,---,0.00,VWS V13.01,2013-09-05 23:20:00,
2013-09-05 18:21:00,77.9,68.9,30.10,ENE,74,0.0,0.0,74,0.00,,---,0.00,VWS V13.01,2013-09-05 23:21:00,
2013-09-05 18:22:00,77.8,68.9,30.10,ENE,74,0.0,0.0,74,0.00,,---,0.00,VWS V13.01,2013-09-05 23:22:00,
2013-09-05 18:23:00,77.7,68.8,30.10,ENE,74,0.0,0.0,74,0.00,,---,0.00,VWS V13.01,2013-09-05 23:23:00,
2013-09-05 18:24:00,77.6,69.1,30.10,ENE,74,0.0,0.0,75,0.00,,---,0.00,VWS V13.01,2013-09-05 23:24:00,
2013-09-05 18:25:00,77.6,69.1,30.10,ENE,74,0.0,0.0,75,0.00,,---,0.00,VWS V13.01,2013-09-05 23:25:00,
2013-09-05 18:26:00,77.5,69.3,30.10,ENE,74,0.0,0.0,76,0.00,,---,0.00,VWS V13.01,2013-09-05 23:26:00,
2013-09-05 18:27:00,77.4,69.2,30.10,ENE,74,0.0,0.0,76,0.00,,---,0.00,VWS V13.01,2013-09-05 23:27:00,
2013-09-05 18:28:00,77.3,69.5,30.10,ENE,74,0.0,0.0,77,0.00,,---,0.00,VWS V13.01,2013-09-05 23:28:00,
2013-09-05 18:29:00,77.1,69.3,30.11,ENE,74,0.0,0.0,77,0.00,,---,0.00,VWS V13.01,2013-09-05 23:29:00,
2013-09-05 18:30:00,77.0,69.2,30.11,ENE,74,0.0,0.0,77,0.00,,---,0.00,VWS V13.01,2013-09-05 23:30:00,
2013-09-05 18:31:00,76.9,69.5,30.11,ENE,74,0.0,0.0,78,0.00,,---,0.00,VWS V13.01,2013-09-05 23:31:00,
2013-09-05 18:32:00,76.8,69.4,30.11,ENE,74,0.0,0.0,78,0.00,,---,0.00,VWS V13.01,2013-09-05 23:32:00,
2013-09-05 18:33:00,76.7,69.7,30.11,ENE,74,0.0,0.0,79,0.00,,---,0.00,VWS V13.01,2013-09-05 23:33:00,
2013-09-05 18:34:00,76.6,69.6,30.11,ENE,74,0.0,0.0,79,0.00,,---,0.00,VWS V13.01,2013-09-05 23:34:00,
2013-09-05 18:35:00,76.4,69.4,30.11,ENE,74,0.0,0.0,79,0.00,,---,0.00,VWS V13.01,2013-09-05 23:35:00,
2013-09-05 18:36:00,76.3,69.7,30.11,ENE,74,0.0,0.0,80,0.00,,---,0.00,VWS V13.01,2013-09-05 23:36:00,
2013-09-05 18:37:00,76.2,69.6,30.11,ENE,74,0.0,0.0,80,0.00,,---,0.00,VWS V13.01,2013-09-05 23:37:00,
2013-09-05 18:38:00,76.1,69.5,30.11,ENE,74,0.0,0.0,80,0.00,,---,0.00,VWS V13.01,2013-09-05 23:38:00,
2013-09-05 18:39:00,75.9,69.7,30.11,ENE,74,0.0,0.0,81,0.00,,---,0.00,VWS V13.01,2013-09-05 23:39:00,
2013-09-05 18:40:00,75.9,69.7,30.11,ENE,74,0.0,0.0,81,0.00,,---,0.00,VWS V13.01,2013-09-05 23:40:00,
2013-09-05 18:41:00,75.7,69.5,30.11,ENE,74,0.0,0.0,81,0.00,,---,0.00,VWS V13.01,2013-09-05 23:41:00,
2013-09-05 18:42:00,75.6,69.4,30.11,ENE,74,0.0,0.0,81,0.00,,---,0.00,VWS V13.01,2013-09-05 23:42:00,
2013-09-05 18:43:00,75.5,69.6,30.11,ENE,74,0.0,0.0,82,0.00,,---,0.00,VWS V13.01,2013-09-05 23:43:00,
2013-09-05 18:44:00,75.4,69.5,30.11,ENE,74,0.0,0.0,82,0.00,,---,0.00,VWS V13.01,2013-09-05 23:44:00,
2013-09-05 18:45:00,75.2,69.3,30.11,ENE,74,0.0,0.0,82,0.00,,---,0.00,VWS V13.01,2013-09-05 23:45:00,